METAR Data
IDs: Format: Raw Decoded Include TAF

Data at: 1458 UTC 21 May 2019

KCBF 211455Z AUTO 10015G28KT 2SM BR BKN008 OVC011 08/08 A2975 RMK AO2
KCBF 211435Z AUTO 10012G24KT 1 1/4SM BR OVC009 08/08 A2976 RMK AO2
KCBF 211415Z AUTO 11020G30KT 10SM OVC011 09/09 A2978 RMK AO2
KCBF 211355Z AUTO 11020G31KT 10SM SCT007 OVC012 09/09 A2980 RMK AO2
KCBF 211335Z AUTO 11017G24KT 9SM OVC008 09/09 A2979 RMK AO2
KCBF 211315Z AUTO 10019G25KT 10SM OVC007 09/09 A2978 RMK AO2
KCBF 211255Z AUTO 11016G28KT 10SM OVC008 09/09 A2979 RMK AO2
KCBF 211235Z AUTO 10016G23KT 10SM OVC008 09/09 A2979 RMK AO2
KCBF 211215Z AUTO 09015G25KT 10SM OVC008 09/09 A2978 RMK AO2
KCBF 211155Z AUTO 09014G23KT 10SM OVC008 09/09 A2979 RMK AO2
KCBF 211135Z AUTO 10011G22KT 10SM OVC009 09/09 A2981 RMK AO2
KCBF 211115Z AUTO 10015G22KT 10SM OVC009 08/08 A2982 RMK AO2
KCBF 211055Z AUTO 09015G23KT 10SM OVC009 08/08 A2980 RMK AO2
KCBF 211035Z AUTO 09013G19KT 10SM OVC009 08/08 A2980 RMK AO2
KCBF 211015Z AUTO 08015G24KT 10SM OVC008 08/08 A2981 RMK AO2
KCBF 210955Z AUTO 07013G24KT 10SM OVC008 08/08 A2982 RMK AO2
KCBF 210935Z AUTO 08014G22KT 10SM OVC007 08/08 A2982 RMK AO2
KCBF 210915Z AUTO 08017G22KT 6SM BR OVC007 08/08 A2983 RMK AO2
KCBF 210855Z AUTO 07015G25KT 2 1/2SM -DZ OVC006 08/08 A2983 RMK AO2 P0002
KCBF 210835Z AUTO 08012G18KT 2SM BR BKN006 OVC010 08/08 A2986 RMK AO2
KCBF 210815Z AUTO 08014KT 5SM BR BKN006 BKN010 OVC015 08/08 A2987 RMK AO2
KCBF 210755Z AUTO 08015G22KT 3SM BR BKN006 OVC010 08/08 A2986 RMK AO2 P0010
KCBF 210735Z AUTO 09013G22KT 1 3/4SM -RA OVC006 08/08 A2987 RMK AO2
KCBF 210715Z AUTO 09012G17KT 2SM -RA FEW006 BKN009 OVC025 08/08 A2987 RMK AO2
KCBF 210655Z AUTO 09014G19KT 4SM BR OVC012 08/08 A2989 RMK AO2
KCBF 210635Z AUTO 09013G19KT 7SM BKN013 BKN031 OVC043 08/08 A2987 RMK AO2
KCBF 210615Z AUTO 08012G18KT 5SM BR FEW015 BKN035 OVC045 09/09 A2988 RMK AO2
KCBF 210555Z AUTO 09012G23KT 10SM FEW036 OVC049 09/09 A2989 RMK AO2
KCBF 210535Z AUTO 09014KT 10SM OVC050 09/09 A2991 RMK AO2
KCBF 210515Z AUTO 09011G20KT 8SM FEW038 FEW044 OVC055 09/09 A2991 RMK AO2
KCBF 210455Z AUTO 09013G22KT 10SM FEW038 FEW047 OVC060 09/08 A2991 RMK AO2
KCBF 210435Z AUTO 08016G24KT 10SM OVC055 09/08 A2992 RMK AO2
KCBF 210415Z AUTO 08013G20KT 10SM FEW048 OVC055 09/09 A2991 RMK AO2
KCBF 210355Z AUTO 08012G19KT 10SM FEW048 OVC055 09/09 A2991 RMK AO2
KCBF 210335Z AUTO 09012G20KT 10SM OVC060 09/09 A2993 RMK AO2
KCBF 210315Z AUTO 08010G16KT 10SM OVC065 09/09 A2993 RMK AO2
KCBF 210255Z AUTO 08016KT 10SM OVC070 10/08 A2993 RMK AO2
KCBF 210235Z AUTO 16/58333317G22KT 10SM OVC070 10/08 A2993 RMK AO2
KCBF 210215Z AUTO 09014KT 10SM BKN080 BKN085 10/07 A2993 RMK AO2
KCBF 210155Z AUTO 10013G19KT 10SM OVC085 10/07 A2994 RMK AO2
KCBF 210135Z AUTO 09009G19KT 10SM OVC085 10/07 A2994 RMK AO2
KCBF 210115Z AUTO 10015KT 10SM OVC090 10/07 A2995 RMK AO2
KCBF 210055Z AUTO 10015KT 10SM BKN036 OVC090 10/07 A2997 RMK AO2
KCBF 210035Z AUTO 10012G19KT 10SM OVC037 10/07 A2998 RMK AO2
KCBF 210015Z AUTO 10009G15KT 10SM SCT038 SCT085 10/07 A2999 RMK AO2
KCBF 202355Z AUTO 09013G19KT 10SM CLR 10/07 A2996 RMK AO2
KCBF 202335Z AUTO 08012G18KT 10SM CLR 10/07 A2998 RMK AO2
KCBF 202315Z AUTO 09013G20KT 10SM FEW090 10/07 A3000 RMK AO2
KCBF 202255Z AUTO 09009G18KT 10SM SCT090 10/07 A3002 RMK AO2
KCBF 202235Z AUTO 07010KT 10SM CLR 10/08 A3004 RMK AO2
KCBF 202215Z AUTO 10009G14KT 10SM CLR 10/07 A3006 RMK AO2
KCBF 202155Z AUTO 09008G13KT 10SM FEW080 10/07 A3006 RMK AO2
KCBF 202135Z AUTO 11011KT 10SM SCT080 11/07 A3008 RMK AO2
KCBF 202115Z AUTO 10011KT 10SM FEW029 BKN085 11/06 A3008 RMK AO2
KCBF 202055Z AUTO 11009G16KT 10SM FEW028 SCT080 SCT090 11/06 A3009 RMK AO2
KCBF 202035Z AUTO 10010G16KT 10SM FEW029 11/06 A3008 RMK AO2
KCBF 202015Z AUTO 08010KT 10SM FEW029 11/06 A3008 RMK AO2
KCBF 201955Z AUTO 08012KT 10SM FEW028 FEW100 11/06 A3007 RMK AO2
KCBF 201935Z AUTO 10010G16KT 10SM SCT028 BKN095 11/06 A3008 RMK AO2
KCBF 201915Z AUTO 08011KT 10SM FEW027 OVC090 11/06 A3009 RMK AO2
KCBF 201855Z AUTO 09011KT 10SM SCT027 OVC090 11/06 A3010 RMK AO2
KCBF 201835Z AUTO 08010KT 10SM BKN027 OVC095 11/06 A3011 RMK AO2
KCBF 201815Z AUTO 08013KT 10SM OVC027 11/06 A3012 RMK AO2
KCBF 201755Z AUTO 13008G15KT 10SM BKN025 10/06 A3014 RMK AO2
KCBF 201735Z AUTO 09012KT 10SM BKN024 10/07 A3011 RMK AO2
KCBF 201715Z AUTO 11010KT 10SM BKN023 10/07 A3011 RMK AO2
KCBF 201655Z AUTO 09011KT 10SM BKN023 BKN038 09/07 A3012 RMK AO2
KCBF 201635Z AUTO 08011KT 10SM BKN021 BKN038 08/07 A3014 RMK AO2
KCBF 201615Z AUTO 08011G17KT 10SM SCT020 08/07 A3013 RMK AO2
KCBF 201555Z AUTO 06014KT 10SM BKN019 08/07 A3013 RMK AO2
KCBF 201535Z AUTO 06012KT 10SM BKN019 08/06 A3013 RMK AO2
KCBF 201515Z AUTO 05011KT 10SM BKN018 08/06 A3013 RMK AO2
KCBF 201455Z AUTO 08010KT 10SM OVC017 07/06 A3014 RMK AO2
KCBF 201435Z AUTO 06010KT 10SM OVC018 07/06 A3015 RMK AO2
KCBF 201415Z AUTO 05007KT 10SM OVC017 06/06 A3016 RMK AO2
KCBF 201355Z AUTO 04008KT 10SM BKN015 OVC019 06/06 A3014 RMK AO2
KCBF 201335Z AUTO 04006KT 10SM BKN015 OVC020 06/06 A3015 RMK AO2
KCBF 201315Z AUTO 04007KT 10SM OVC014 06/05 A3013 RMK AO2
KCBF 201255Z AUTO 04009G14KT 10SM OVC014 06/06 A3012 RMK AO2
KCBF 201235Z AUTO 02008KT 10SM OVC014 06/06 A3012 RMK AO2
KCBF 201215Z AUTO 02011KT 10SM OVC014 06/06 A3010 RMK AO2
KCBF 201155Z AUTO 02012KT 10SM OVC015 06/06 A3008 RMK AO2
KCBF 201135Z AUTO 01010KT 10SM OVC015 06/06 A3010 RMK AO2
KCBF 201115Z AUTO 02007KT 10SM OVC013 06/06 A3011 RMK AO2
KCBF 201055Z AUTO 03008KT 10SM OVC015 06/06 A3010 RMK AO2
KCBF 201035Z AUTO 01005G10KT 10SM OVC016 05/05 A3009 RMK AO2
KCBF 201015Z AUTO 03009KT 10SM OVC016 05/05 A3008 RMK AO2
KCBF 200955Z AUTO 02009KT 10SM OVC015 06/06 A3008 RMK AO2
KCBF 200935Z AUTO 01007KT 10SM OVC015 06/06 A3008 RMK AO2
KCBF 200915Z AUTO 02008KT 10SM BKN016 06/06 A3007 RMK AO2
KCBF 200855Z AUTO 01006KT 10SM BKN018 06/06 A3008 RMK AO2
KCBF 200835Z AUTO 01008KT 10SM BKN018 06/06 A3008 RMK AO2
KCBF 200815Z AUTO 02008G14KT 10SM BKN019 06/06 A3007 RMK AO2
KCBF 200755Z AUTO 36011KT 10SM BKN018 BKN022 07/07 A3007 RMK AO2
KCBF 200735Z AUTO 36009KT 10SM FEW015 BKN037 07/07 A3006 RMK AO2
KCBF 200715Z AUTO 36009KT 10SM FEW012 FEW016 OVC036 08/08 A3006 RMK AO2
KCBF 200655Z AUTO 36010KT 10SM FEW028 OVC035 08/08 A3006 RMK AO2
KCBF 200635Z AUTO 35010KT 10SM FEW022 SCT027 OVC036 08/08 A3006 RMK AO2
KCBF 200615Z AUTO 35009KT 10SM SCT018 SCT025 OVC038 08/08 A3006 RMK AO2
KCBF 200555Z AUTO 36011KT 10SM BKN018 BKN026 OVC038 09/08 A3006 RMK AO2
KCBF 200535Z AUTO 35008KT 10SM BKN027 OVC039 09/09 A3005 RMK AO2
KCBF 200515Z AUTO 33008G13KT 10SM SCT021 BKN026 OVC030 09/09 A3004 RMK AO2
KCBF 200455Z AUTO 34010KT 10SM SCT019 BKN026 OVC041 09/09 A3003 RMK AO2
KCBF 200435Z AUTO 35013KT 10SM SCT019 BKN023 OVC039 10/10 A3003 RMK AO2
KCBF 200415Z AUTO 31006KT 10SM BKN020 BKN026 OVC035 10/10 A3003 RMK AO2
KCBF 200355Z AUTO 32006KT 10SM FEW021 SCT025 OVC047 10/09 A3002 RMK AO2
KCBF 200335Z AUTO 33006KT 10SM OVC046 10/09 A3001 RMK AO2
KCBF 200315Z AUTO 32010KT 10SM FEW029 BKN044 OVC049 10/08 A3000 RMK AO2